Yankton, SD (57078)

11:02 AM CST on Νοέμβριος 26, 2014 (GMT -0600)
Gurney Municipal | Change Station
CLOSE
Current Station
Airport
Location: Yankton,
Elevation: 1306 ft
Nearby Weather Stations

Elev 1306 ft 42.92 °N, 97.39 °W | Updated 7 minutes ago

Overcast
Νεφοσκεπής
19 ° F
Feels Like 2 ° F
N
24
Ανεμος Μεταβλητός Ανεμος from ΒΔ
Gusts 30 mph

Σήμερα
High -- | Low -- ° F
--% Chance of Precip.
Yesterday
High -- | Low -- ° F
Precip. -- in
7:35 AM 4:58 PM
Μηνίσκος, 21% visible
Ατμοσφαιρική Πίεση 30.25 in
Ορατότητα 10.0 Μίλια
Σύννεφα Νεφοσκεπής 1400 ft
Δείκτης Ψυχρότητας 2 ° F
Σημείο Δρόσου 12 ° F
Υγρασία 74%
Rainfall 0.00 in
Snow Depth Not available.
Υπεριώδης ακτινοβολία (UV) 1 out of 12
Pollen .10 out of 12
Air Quality Not available.
Flu Activity Not available.
METAR KYKN 261655Z AUTO 32021G26KT 10SM OVC014 M07/M11 A3025 RMK AO1

More Conditions Fewer Conditions

Ατμοσφαιρική Πίεση 30.25 in
Ορατότητα 10.0 Μίλια
Σύννεφα Νεφοσκεπής 1400 ft
Δείκτης Ψυχρότητας 2 ° F
Σημείο Δρόσου 12 ° F
Υγρασία 74%
Rainfall 0.00 in
Snow Depth Not available.
Υπεριώδης ακτινοβολία (UV) 1 out of 12
Pollen .10 out of 12
Air Quality Not available.
Flu Activity Not available.
METAR KYKN 261655Z AUTO 32021G26KT 10SM OVC014 M07/M11 A3025 RMK AO1

More Conditions Fewer Conditions

10-Day Weather Forecast

Almanac

Αστρονομία

Nov. 26, 2014 Rise Set
Actual Time
Civil Twilight
Nautical Twilight
Astronomical Twilight
Moon
Length Of Visible Light
Διάρκεια ημέρας
Tomorrow will be .
, % of the Moon is Illuminated

Today's Extremes

State Highs State Lows

Community

WunderPhotos

Upload Photos

1,773,799 photos uploaded!

WunderBlogs® & News

Nearby

Air Quality

  Air Quality AQ Index Pollutant
Not available.

Snow Depth

Station Depth Elevation

Earthquake Activity

City Distance Mag. Time & Date
Minimum magnitude displayed is 2.5.

Coastal Water Temperatures

Τοποθεσία Θερμοκρασία

Nearby Weather Stations